sensor_id;sensor_type;location;lat;lon;timestamp;P1;durP1;ratioP1;P2;durP2;ratioP2
11998;SDS011;40817;51.520;9.954;2024-03-23T00:54:14;8.93;;;2.33;;
11998;SDS011;40817;51.520;9.954;2024-03-23T00:56:41;11.18;;;2.95;;
11998;SDS011;40817;51.520;9.954;2024-03-23T00:59:07;4.57;;;2.20;;
11998;SDS011;40817;51.520;9.954;2024-03-23T01:01:35;3.58;;;1.88;;
11998;SDS011;40817;51.520;9.954;2024-03-23T01:04:01;7.57;;;2.60;;
11998;SDS011;40817;51.520;9.954;2024-03-23T01:06:29;9.80;;;3.22;;
11998;SDS011;40817;51.520;9.954;2024-03-23T01:08:56;7.38;;;2.47;;
11998;SDS011;40817;51.520;9.954;2024-03-23T01:11:24;9.05;;;3.30;;
11998;SDS011;40817;51.520;9.954;2024-03-23T01:13:50;5.20;;;2.53;;
11998;SDS011;40817;51.520;9.954;2024-03-23T01:16:20;6.30;;;2.78;;
11998;SDS011;40817;51.520;9.954;2024-03-23T01:18:46;7.65;;;3.17;;
11998;SDS011;40817;51.520;9.954;2024-03-23T01:21:13;8.63;;;2.30;;
11998;SDS011;40817;51.520;9.954;2024-03-23T01:23:39;7.20;;;2.70;;
11998;SDS011;40817;51.520;9.954;2024-03-23T01:26:07;5.50;;;2.60;;
11998;SDS011;40817;51.520;9.954;2024-03-23T01:28:34;9.85;;;2.67;;
11998;SDS011;40817;51.520;9.954;2024-03-23T01:31:02;8.90;;;2.63;;
11998;SDS011;40817;51.520;9.954;2024-03-23T01:33:28;8.40;;;2.67;;
11998;SDS011;40817;51.520;9.954;2024-03-23T01:35:56;8.10;;;3.30;;
11998;SDS011;40817;51.520;9.954;2024-03-23T01:38:22;9.70;;;2.15;;
11998;SDS011;40817;51.520;9.954;2024-03-23T01:40:49;8.80;;;3.03;;
11998;SDS011;40817;51.520;9.954;2024-03-23T01:43:22;8.43;;;3.58;;
11998;SDS011;40817;51.520;9.954;2024-03-23T01:45:51;6.63;;;2.90;;
11998;SDS011;40817;51.520;9.954;2024-03-23T01:48:18;6.93;;;3.08;;
11998;SDS011;40817;51.520;9.954;2024-03-23T01:50:46;6.13;;;3.08;;
11998;SDS011;40817;51.520;9.954;2024-03-23T01:55:42;12.70;;;4.57;;
11998;SDS011;40817;51.520;9.954;2024-03-23T01:58:08;6.93;;;3.00;;
11998;SDS011;40817;51.520;9.954;2024-03-23T02:00:36;9.90;;;3.72;;
11998;SDS011;40817;51.520;9.954;2024-03-23T02:03:11;9.00;;;3.42;;
11998;SDS011;40817;51.520;9.954;2024-03-23T02:05:50;9.77;;;2.85;;
11998;SDS011;40817;51.520;9.954;2024-03-23T02:08:17;8.10;;;2.83;;
11998;SDS011;40817;51.520;9.954;2024-03-23T02:10:46;8.60;;;3.13;;
11998;SDS011;40817;51.520;9.954;2024-03-23T02:13:13;9.18;;;3.00;;
11998;SDS011;40817;51.520;9.954;2024-03-23T02:15:41;10.40;;;3.10;;
11998;SDS011;40817;51.520;9.954;2024-03-23T02:18:09;9.07;;;3.90;;
11998;SDS011;40817;51.520;9.954;2024-03-23T02:20:37;10.13;;;3.42;;
11998;SDS011;40817;51.520;9.954;2024-03-23T02:23:05;5.82;;;3.20;;
11998;SDS011;40817;51.520;9.954;2024-03-23T02:25:38;10.88;;;4.13;;
11998;SDS011;40817;51.520;9.954;2024-03-23T02:28:05;8.98;;;2.95;;
11998;SDS011;40817;51.520;9.954;2024-03-23T02:30:32;8.77;;;3.38;;
11998;SDS011;40817;51.520;9.954;2024-03-23T02:32:59;7.93;;;2.78;;
11998;SDS011;40817;51.520;9.954;2024-03-23T02:35:26;13.35;;;3.22;;
11998;SDS011;40817;51.520;9.954;2024-03-23T02:37:52;10.30;;;3.60;;
11998;SDS011;40817;51.520;9.954;2024-03-23T02:40:22;13.98;;;3.38;;
11998;SDS011;40817;51.520;9.954;2024-03-23T02:42:49;9.48;;;3.40;;
11998;SDS011;40817;51.520;9.954;2024-03-23T02:45:17;10.95;;;3.75;;
11998;SDS011;40817;51.520;9.954;2024-03-23T02:50:10;9.93;;;3.75;;
11998;SDS011;40817;51.520;9.954;2024-03-23T02:52:37;7.43;;;3.53;;
11998;SDS011;40817;51.520;9.954;2024-03-23T02:55:04;8.93;;;3.50;;
11998;SDS011;40817;51.520;9.954;2024-03-23T02:57:32;7.65;;;3.67;;
11998;SDS011;40817;51.520;9.954;2024-03-23T02:59:59;8.75;;;3.97;;
11998;SDS011;40817;51.520;9.954;2024-03-23T03:02:26;12.63;;;4.78;;
11998;SDS011;40817;51.520;9.954;2024-03-23T03:04:53;10.65;;;4.35;;
11998;SDS011;40817;51.520;9.954;2024-03-23T03:07:19;9.75;;;3.70;;
11998;SDS011;40817;51.520;9.954;2024-03-23T03:09:46;9.98;;;3.83;;
11998;SDS011;40817;51.520;9.954;2024-03-23T03:12:13;9.20;;;3.17;;
11998;SDS011;40817;51.520;9.954;2024-03-23T03:14:41;6.72;;;2.70;;
11998;SDS011;40817;51.520;9.954;2024-03-23T03:17:07;8.63;;;3.10;;
11998;SDS011;40817;51.520;9.954;2024-03-23T03:19:35;8.30;;;2.97;;
11998;SDS011;40817;51.520;9.954;2024-03-23T03:22:01;5.97;;;2.58;;
11998;SDS011;40817;51.520;9.954;2024-03-23T03:24:29;8.75;;;2.80;;
11998;SDS011;40817;51.520;9.954;2024-03-23T03:26:55;12.48;;;3.97;;
11998;SDS011;40817;51.520;9.954;2024-03-23T03:29:23;6.28;;;2.38;;
11998;SDS011;40817;51.520;9.954;2024-03-23T03:31:51;8.05;;;2.95;;
11998;SDS011;40817;51.520;9.954;2024-03-23T03:34:18;3.97;;;2.00;;
11998;SDS011;40817;51.520;9.954;2024-03-23T03:36:44;8.55;;;2.45;;
11998;SDS011;40817;51.520;9.954;2024-03-23T03:39:11;5.15;;;2.47;;
11998;SDS011;40817;51.520;9.954;2024-03-23T03:41:38;9.07;;;4.13;;
11998;SDS011;40817;51.520;9.954;2024-03-23T03:44:05;6.78;;;2.10;;
11998;SDS011;40817;51.520;9.954;2024-03-23T03:46:31;5.65;;;3.08;;
11998;SDS011;40817;51.520;9.954;2024-03-23T03:49:00;4.50;;;1.98;;
11998;SDS011;40817;51.520;9.954;2024-03-23T03:51:26;4.28;;;1.92;;
11998;SDS011;40817;51.520;9.954;2024-03-23T03:53:53;6.38;;;2.40;;
11998;SDS011;40817;51.520;9.954;2024-03-23T03:56:20;4.22;;;2.30;;
11998;SDS011;40817;51.520;9.954;2024-03-23T03:58:47;4.97;;;2.25;;
11998;SDS011;40817;51.520;9.954;2024-03-23T04:01:14;6.38;;;2.35;;
11998;SDS011;40817;51.520;9.954;2024-03-23T04:03:41;4.38;;;2.08;;
11998;SDS011;40817;51.520;9.954;2024-03-23T04:06:10;3.10;;;1.80;;
11998;SDS011;40817;51.520;9.954;2024-03-23T04:08:37;4.78;;;2.15;;
11998;SDS011;40817;51.520;9.954;2024-03-23T04:11:03;4.05;;;1.98;;
11998;SDS011;40817;51.520;9.954;2024-03-23T04:13:30;4.70;;;2.20;;
11998;SDS011;40817;51.520;9.954;2024-03-23T04:15:57;5.82;;;1.88;;
11998;SDS011;40817;51.520;9.954;2024-03-23T04:18:24;6.18;;;2.08;;
11998;SDS011;40817;51.520;9.954;2024-03-23T04:20:51;2.95;;;1.42;;
11998;SDS011;40817;51.520;9.954;2024-03-23T04:23:19;7.35;;;1.90;;
11998;SDS011;40817;51.520;9.954;2024-03-23T04:25:46;3.28;;;1.40;;
11998;SDS011;40817;51.520;9.954;2024-03-23T04:28:13;6.13;;;1.58;;
11998;SDS011;40817;51.520;9.954;2024-03-23T04:30:39;6.38;;;2.55;;
11998;SDS011;40817;51.520;9.954;2024-03-23T04:33:07;6.70;;;1.92;;
11998;SDS011;40817;51.520;9.954;2024-03-23T04:35:33;6.35;;;1.95;;
11998;SDS011;40817;51.520;9.954;2024-03-23T04:38:00;4.18;;;1.70;;
11998;SDS011;40817;51.520;9.954;2024-03-23T04:40:29;6.30;;;1.60;;
11998;SDS011;40817;51.520;9.954;2024-03-23T04:42:56;5.47;;;1.63;;
11998;SDS011;40817;51.520;9.954;2024-03-23T04:45:23;4.70;;;1.40;;
11998;SDS011;40817;51.520;9.954;2024-03-23T04:47:51;5.47;;;1.60;;
11998;SDS011;40817;51.520;9.954;2024-03-23T04:50:18;5.53;;;1.60;;
11998;SDS011;40817;51.520;9.954;2024-03-23T04:52:45;5.13;;;1.40;;
11998;SDS011;40817;51.520;9.954;2024-03-23T04:55:13;4.72;;;1.85;;
11998;SDS011;40817;51.520;9.954;2024-03-23T04:57:43;4.60;;;1.48;;
11998;SDS011;40817;51.520;9.954;2024-03-23T05:00:10;3.85;;;1.70;;
11998;SDS011;40817;51.520;9.954;2024-03-23T05:02:43;2.53;;;1.00;;
11998;SDS011;40817;51.520;9.954;2024-03-23T05:05:10;2.92;;;1.17;;
11998;SDS011;40817;51.520;9.954;2024-03-23T05:07:38;2.47;;;1.00;;
11998;SDS011;40817;51.520;9.954;2024-03-23T05:10:05;3.83;;;1.00;;
11998;SDS011;40817;51.520;9.954;2024-03-23T05:12:35;3.90;;;1.13;;
11998;SDS011;40817;51.520;9.954;2024-03-23T05:15:03;2.72;;;1.20;;
11998;SDS011;40817;51.520;9.954;2024-03-23T05:17:32;4.43;;;0.98;;
11998;SDS011;40817;51.520;9.954;2024-03-23T05:19:59;2.60;;;1.10;;
11998;SDS011;40817;51.520;9.954;2024-03-23T05:22:26;5.28;;;1.20;;
11998;SDS011;40817;51.520;9.954;2024-03-23T05:24:52;15.27;;;1.98;;
11998;SDS011;40817;51.520;9.954;2024-03-23T05:27:19;3.28;;;1.00;;
11998;SDS011;40817;51.520;9.954;2024-03-23T05:29:46;2.90;;;1.00;;
11998;SDS011;40817;51.520;9.954;2024-03-23T05:32:15;1.73;;;0.80;;
11998;SDS011;40817;51.520;9.954;2024-03-23T05:34:41;1.60;;;0.82;;
11998;SDS011;40817;51.520;9.954;2024-03-23T05:37:08;0.85;;;0.68;;
11998;SDS011;40817;51.520;9.954;2024-03-23T05:39:34;2.90;;;1.20;;
11998;SDS011;40817;51.520;9.954;2024-03-23T05:42:02;4.90;;;1.23;;
11998;SDS011;40817;51.520;9.954;2024-03-23T05:44:28;3.13;;;1.23;;
11998;SDS011;40817;51.520;9.954;2024-03-23T05:46:56;2.05;;;0.80;;
11998;SDS011;40817;51.520;9.954;2024-03-23T05:49:24;1.65;;;0.82;;
11998;SDS011;40817;51.520;9.954;2024-03-23T05:51:51;2.10;;;0.70;;
11998;SDS011;40817;51.520;9.954;2024-03-23T05:54:18;1.50;;;0.77;;
11998;SDS011;40817;51.520;9.954;2024-03-23T05:56:45;2.05;;;0.95;;
11998;SDS011;40817;51.520;9.954;2024-03-23T05:59:11;5.78;;;1.10;;
11998;SDS011;40817;51.520;9.954;2024-03-23T06:01:39;1.23;;;0.80;;
11998;SDS011;40817;51.520;9.954;2024-03-23T06:04:05;4.07;;;0.95;;
11998;SDS011;40817;51.520;9.954;2024-03-23T06:06:33;7.00;;;1.50;;
11998;SDS011;40817;51.520;9.954;2024-03-23T06:09:00;2.47;;;0.98;;
11998;SDS011;40817;51.520;9.954;2024-03-23T06:11:27;3.08;;;0.95;;
11998;SDS011;40817;51.520;9.954;2024-03-23T06:13:53;1.58;;;0.90;;
11998;SDS011;40817;51.520;9.954;2024-03-23T06:16:21;4.03;;;1.20;;
11998;SDS011;40817;51.520;9.954;2024-03-23T06:18:49;2.72;;;0.88;;
11998;SDS011;40817;51.520;9.954;2024-03-23T06:21:16;3.45;;;1.10;;
11998;SDS011;40817;51.520;9.954;2024-03-23T06:23:44;2.17;;;1.08;;
11998;SDS011;40817;51.520;9.954;2024-03-23T06:26:16;2.72;;;1.00;;
11998;SDS011;40817;51.520;9.954;2024-03-23T06:31:10;2.70;;;1.10;;
11998;SDS011;40817;51.520;9.954;2024-03-23T06:33:36;2.97;;;1.10;;
11998;SDS011;40817;51.520;9.954;2024-03-23T06:36:04;2.53;;;1.20;;
11998;SDS011;40817;51.520;9.954;2024-03-23T06:38:31;4.18;;;1.30;;
11998;SDS011;40817;51.520;9.954;2024-03-23T06:41:02;4.38;;;1.40;;
11998;SDS011;40817;51.520;9.954;2024-03-23T06:43:28;5.82;;;1.40;;
11998;SDS011;40817;51.520;9.954;2024-03-23T06:45:55;3.67;;;1.48;;
11998;SDS011;40817;51.520;9.954;2024-03-23T06:48:22;2.30;;;1.27;;
11998;SDS011;40817;51.520;9.954;2024-03-23T06:50:49;2.08;;;1.00;;
11998;SDS011;40817;51.520;9.954;2024-03-23T06:53:21;2.08;;;1.15;;
11998;SDS011;40817;51.520;9.954;2024-03-23T06:55:50;2.95;;;1.20;;
11998;SDS011;40817;51.520;9.954;2024-03-23T06:58:19;2.38;;;1.45;;
11998;SDS011;40817;51.520;9.954;2024-03-23T07:00:50;2.20;;;1.23;;
11998;SDS011;40817;51.520;9.954;2024-03-23T07:03:17;2.72;;;1.67;;
11998;SDS011;40817;51.520;9.954;2024-03-23T07:05:44;2.95;;;1.10;;
11998;SDS011;40817;51.520;9.954;2024-03-23T07:08:11;4.40;;;1.02;;
11998;SDS011;40817;51.520;9.954;2024-03-23T07:10:43;2.10;;;1.23;;
11998;SDS011;40817;51.520;9.954;2024-03-23T07:13:10;2.17;;;1.20;;
11998;SDS011;40817;51.520;9.954;2024-03-23T07:15:38;2.60;;;1.52;;
11998;SDS011;40817;51.520;9.954;2024-03-23T07:18:05;2.38;;;1.00;;
11998;SDS011;40817;51.520;9.954;2024-03-23T07:20:32;2.45;;;1.00;;
11998;SDS011;40817;51.520;9.954;2024-03-23T07:22:58;2.35;;;0.90;;
11998;SDS011;40817;51.520;9.954;2024-03-23T07:25:26;1.42;;;0.90;;
11998;SDS011;40817;51.520;9.954;2024-03-23T07:27:54;3.42;;;1.40;;
11998;SDS011;40817;51.520;9.954;2024-03-23T07:30:21;1.60;;;1.10;;
11998;SDS011;40817;51.520;9.954;2024-03-23T07:32:49;1.83;;;0.77;;
11998;SDS011;40817;51.520;9.954;2024-03-23T07:35:16;3.72;;;1.10;;
11998;SDS011;40817;51.520;9.954;2024-03-23T07:37:42;2.88;;;0.88;;
11998;SDS011;40817;51.520;9.954;2024-03-23T07:40:10;3.60;;;0.88;;
11998;SDS011;40817;51.520;9.954;2024-03-23T07:42:37;2.83;;;1.17;;
11998;SDS011;40817;51.520;9.954;2024-03-23T07:45:05;1.92;;;0.90;;
11998;SDS011;40817;51.520;9.954;2024-03-23T07:47:34;3.00;;;1.35;;
11998;SDS011;40817;51.520;9.954;2024-03-23T07:50:03;3.35;;;1.27;;
11998;SDS011;40817;51.520;9.954;2024-03-23T07:52:31;2.30;;;1.20;;
11998;SDS011;40817;51.520;9.954;2024-03-23T07:54:58;2.50;;;1.20;;
11998;SDS011;40817;51.520;9.954;2024-03-23T07:57:24;2.13;;;1.02;;
11998;SDS011;40817;51.520;9.954;2024-03-23T07:59:51;2.58;;;1.25;;
11998;SDS011;40817;51.520;9.954;2024-03-23T08:02:18;3.28;;;1.00;;
11998;SDS011;40817;51.520;9.954;2024-03-23T08:04:45;4.97;;;1.17;;
11998;SDS011;40817;51.520;9.954;2024-03-23T08:07:13;3.35;;;1.05;;
11998;SDS011;40817;51.520;9.954;2024-03-23T08:09:40;2.90;;;1.00;;
11998;SDS011;40817;51.520;9.954;2024-03-23T08:12:07;5.80;;;1.50;;
11998;SDS011;40817;51.520;9.954;2024-03-23T08:14:33;4.57;;;1.10;;
11998;SDS011;40817;51.520;9.954;2024-03-23T08:17:00;1.67;;;0.80;;
11998;SDS011;40817;51.520;9.954;2024-03-23T08:19:27;2.85;;;0.88;;
11998;SDS011;40817;51.520;9.954;2024-03-23T08:21:54;3.95;;;1.00;;
11998;SDS011;40817;51.520;9.954;2024-03-23T08:24:22;6.95;;;1.00;;
11998;SDS011;40817;51.520;9.954;2024-03-23T08:26:49;3.67;;;1.27;;
11998;SDS011;40817;51.520;9.954;2024-03-23T08:29:15;3.75;;;0.90;;
11998;SDS011;40817;51.520;9.954;2024-03-23T08:31:42;3.50;;;1.10;;
11998;SDS011;40817;51.520;9.954;2024-03-23T08:34:09;4.38;;;1.25;;
11998;SDS011;40817;51.520;9.954;2024-03-23T08:36:36;2.55;;;1.15;;
11998;SDS011;40817;51.520;9.954;2024-03-23T08:39:03;3.58;;;1.33;;
11998;SDS011;40817;51.520;9.954;2024-03-23T08:41:32;7.03;;;1.60;;
11998;SDS011;40817;51.520;9.954;2024-03-23T08:43:59;3.88;;;1.13;;
11998;SDS011;40817;51.520;9.954;2024-03-23T08:46:26;4.88;;;1.17;;
11998;SDS011;40817;51.520;9.954;2024-03-23T08:48:52;3.60;;;1.10;;
11998;SDS011;40817;51.520;9.954;2024-03-23T08:51:20;4.70;;;1.27;;
11998;SDS011;40817;51.520;9.954;2024-03-23T08:53:46;5.55;;;1.40;;
11998;SDS011;40817;51.520;9.954;2024-03-23T08:56:13;5.32;;;1.20;;
11998;SDS011;40817;51.520;9.954;2024-03-23T08:58:42;7.10;;;1.60;;
11998;SDS011;40817;51.520;9.954;2024-03-23T09:01:10;6.35;;;1.67;;
11998;SDS011;40817;51.520;9.954;2024-03-23T09:03:38;4.22;;;1.45;;
11998;SDS011;40817;51.520;9.954;2024-03-23T09:06:06;3.58;;;1.23;;
11998;SDS011;40817;51.520;9.954;2024-03-23T09:08:33;5.53;;;1.58;;
11998;SDS011;40817;51.520;9.954;2024-03-23T09:11:03;7.35;;;1.48;;
11998;SDS011;40817;51.520;9.954;2024-03-23T09:13:31;6.50;;;1.90;;
11998;SDS011;40817;51.520;9.954;2024-03-23T09:16:00;10.65;;;3.58;;
11998;SDS011;40817;51.520;9.954;2024-03-23T09:18:31;8.55;;;2.25;;
11998;SDS011;40817;51.520;9.954;2024-03-23T09:21:00;7.95;;;2.53;;
11998;SDS011;40817;51.520;9.954;2024-03-23T09:23:26;8.60;;;1.98;;
11998;SDS011;40817;51.520;9.954;2024-03-23T09:25:54;8.80;;;3.15;;
11998;SDS011;40817;51.520;9.954;2024-03-23T09:28:20;12.38;;;3.92;;
11998;SDS011;40817;51.520;9.954;2024-03-23T09:30:48;9.48;;;2.75;;
11998;SDS011;40817;51.520;9.954;2024-03-23T09:33:16;13.57;;;3.13;;
11998;SDS011;40817;51.520;9.954;2024-03-23T09:35:43;12.32;;;4.28;;
11998;SDS011;40817;51.520;9.954;2024-03-23T09:40:39;14.20;;;3.80;;
11998;SDS011;40817;51.520;9.954;2024-03-23T09:43:07;14.98;;;4.75;;
11998;SDS011;40817;51.520;9.954;2024-03-23T09:45:35;11.30;;;4.63;;
11998;SDS011;40817;51.520;9.954;2024-03-23T09:48:06;19.60;;;5.65;;
11998;SDS011;40817;51.520;9.954;2024-03-23T09:50:37;8.13;;;3.58;;
11998;SDS011;40817;51.520;9.954;2024-03-23T09:53:04;11.20;;;3.95;;
11998;SDS011;40817;51.520;9.954;2024-03-23T09:55:33;9.55;;;4.70;;
11998;SDS011;40817;51.520;9.954;2024-03-23T09:58:00;21.38;;;5.95;;
11998;SDS011;40817;51.520;9.954;2024-03-23T10:00:28;16.20;;;5.30;;
11998;SDS011;40817;51.520;9.954;2024-03-23T10:02:55;17.52;;;6.90;;
11998;SDS011;40817;51.520;9.954;2024-03-23T10:05:23;15.15;;;5.25;;
11998;SDS011;40817;51.520;9.954;2024-03-23T10:07:51;12.88;;;5.65;;
11998;SDS011;40817;51.520;9.954;2024-03-23T10:10:18;11.30;;;5.95;;
11998;SDS011;40817;51.520;9.954;2024-03-23T10:12:47;17.98;;;6.55;;
11998;SDS011;40817;51.520;9.954;2024-03-23T10:15:19;16.73;;;5.50;;
11998;SDS011;40817;51.520;9.954;2024-03-23T10:17:49;12.60;;;6.18;;
11998;SDS011;40817;51.520;9.954;2024-03-23T10:20:18;16.23;;;6.53;;
11998;SDS011;40817;51.520;9.954;2024-03-23T10:22:47;19.20;;;6.43;;
11998;SDS011;40817;51.520;9.954;2024-03-23T10:25:17;14.70;;;5.60;;
11998;SDS011;40817;51.520;9.954;2024-03-23T10:27:55;17.60;;;5.95;;
11998;SDS011;40817;51.520;9.954;2024-03-23T10:30:26;14.20;;;5.60;;
11998;SDS011;40817;51.520;9.954;2024-03-23T10:32:54;8.77;;;3.72;;
11998;SDS011;40817;51.520;9.954;2024-03-23T10:35:36;9.15;;;4.13;;
11998;SDS011;40817;51.520;9.954;2024-03-23T10:38:04;9.82;;;4.80;;
11998;SDS011;40817;51.520;9.954;2024-03-23T10:40:35;10.55;;;4.95;;
11998;SDS011;40817;51.520;9.954;2024-03-23T10:43:04;13.73;;;4.25;;
11998;SDS011;40817;51.520;9.954;2024-03-23T10:45:31;15.32;;;4.20;;
11998;SDS011;40817;51.520;9.954;2024-03-23T10:47:59;12.60;;;4.38;;
11998;SDS011;40817;51.520;9.954;2024-03-23T10:50:25;9.88;;;4.60;;
11998;SDS011;40817;51.520;9.954;2024-03-23T10:52:53;11.43;;;5.00;;
11998;SDS011;40817;51.520;9.954;2024-03-23T10:55:21;11.48;;;5.60;;
11998;SDS011;40817;51.520;9.954;2024-03-23T10:57:52;11.73;;;4.65;;
11998;SDS011;40817;51.520;9.954;2024-03-23T11:00:21;8.82;;;4.47;;
11998;SDS011;40817;51.520;9.954;2024-03-23T11:02:48;12.27;;;4.88;;
11998;SDS011;40817;51.520;9.954;2024-03-23T11:05:27;13.57;;;5.47;;
11998;SDS011;40817;51.520;9.954;2024-03-23T11:07:56;11.07;;;4.65;;
11998;SDS011;40817;51.520;9.954;2024-03-23T11:10:26;9.73;;;4.93;;
11998;SDS011;40817;51.520;9.954;2024-03-23T11:12:57;10.00;;;5.93;;
11998;SDS011;40817;51.520;9.954;2024-03-23T11:18:10;9.27;;;4.00;;
11998;SDS011;40817;51.520;9.954;2024-03-23T11:20:45;9.88;;;3.45;;
11998;SDS011;40817;51.520;9.954;2024-03-23T11:23:22;12.85;;;3.90;;
11998;SDS011;40817;51.520;9.954;2024-03-23T11:25:53;11.00;;;3.58;;
11998;SDS011;40817;51.520;9.954;2024-03-23T11:28:21;5.97;;;2.80;;
11998;SDS011;40817;51.520;9.954;2024-03-23T11:30:48;5.10;;;2.83;;
11998;SDS011;40817;51.520;9.954;2024-03-23T11:33:15;8.25;;;3.00;;
11998;SDS011;40817;51.520;9.954;2024-03-23T11:35:41;6.20;;;3.05;;
11998;SDS011;40817;51.520;9.954;2024-03-23T11:38:09;6.03;;;2.30;;
11998;SDS011;40817;51.520;9.954;2024-03-23T11:40:37;8.57;;;2.60;;
11998;SDS011;40817;51.520;9.954;2024-03-23T11:43:08;7.82;;;2.88;;
11998;SDS011;40817;51.520;9.954;2024-03-23T11:45:39;7.18;;;2.85;;
11998;SDS011;40817;51.520;9.954;2024-03-23T11:48:09;5.15;;;2.63;;
11998;SDS011;40817;51.520;9.954;2024-03-23T11:50:38;7.13;;;3.33;;
11998;SDS011;40817;51.520;9.954;2024-03-23T11:53:07;6.25;;;2.45;;
11998;SDS011;40817;51.520;9.954;2024-03-23T11:55:47;3.80;;;2.22;;
11998;SDS011;40817;51.520;9.954;2024-03-23T11:58:17;3.88;;;2.25;;
11998;SDS011;40817;51.520;9.954;2024-03-23T12:00:50;4.75;;;2.45;;
11998;SDS011;40817;51.520;9.954;2024-03-23T12:03:24;5.00;;;2.47;;
11998;SDS011;40817;51.520;9.954;2024-03-23T12:05:52;3.60;;;1.85;;
11998;SDS011;40817;51.520;9.954;2024-03-23T12:08:21;6.07;;;2.33;;
11998;SDS011;40817;51.520;9.954;2024-03-23T12:10:50;6.68;;;2.47;;
11998;SDS011;40817;51.520;9.954;2024-03-23T12:13:20;10.60;;;2.97;;
11998;SDS011;40817;51.520;9.954;2024-03-23T12:15:47;5.40;;;2.88;;
11998;SDS011;40817;51.520;9.954;2024-03-23T12:18:17;4.15;;;2.63;;
11998;SDS011;40817;51.520;9.954;2024-03-23T12:20:49;4.72;;;2.70;;
11998;SDS011;40817;51.520;9.954;2024-03-23T12:23:16;4.82;;;2.70;;
11998;SDS011;40817;51.520;9.954;2024-03-23T12:25:43;4.90;;;2.88;;
11998;SDS011;40817;51.520;9.954;2024-03-23T12:28:10;5.05;;;2.50;;
11998;SDS011;40817;51.520;9.954;2024-03-23T12:30:38;5.03;;;2.75;;
11998;SDS011;40817;51.520;9.954;2024-03-23T12:33:07;5.55;;;2.97;;
11998;SDS011;40817;51.520;9.954;2024-03-23T12:35:34;4.85;;;2.53;;
11998;SDS011;40817;51.520;9.954;2024-03-23T12:38:01;4.55;;;3.10;;
11998;SDS011;40817;51.520;9.954;2024-03-23T12:40:27;5.60;;;3.15;;
11998;SDS011;40817;51.520;9.954;2024-03-23T12:42:55;6.22;;;3.28;;
11998;SDS011;40817;51.520;9.954;2024-03-23T12:45:21;5.43;;;2.85;;
11998;SDS011;40817;51.520;9.954;2024-03-23T12:47:48;3.95;;;3.40;;
11998;SDS011;40817;51.520;9.954;2024-03-23T12:50:19;4.88;;;3.53;;
11998;SDS011;40817;51.520;9.954;2024-03-23T12:52:46;6.20;;;2.80;;
11998;SDS011;40817;51.520;9.954;2024-03-23T12:55:12;7.05;;;2.83;;
11998;SDS011;40817;51.520;9.954;2024-03-23T12:57:40;6.63;;;2.97;;
11998;SDS011;40817;51.520;9.954;2024-03-23T13:00:06;4.45;;;2.47;;
11998;SDS011;40817;51.520;9.954;2024-03-23T13:02:36;4.88;;;2.88;;
11998;SDS011;40817;51.520;9.954;2024-03-23T13:05:04;5.20;;;2.40;;
11998;SDS011;40817;51.520;9.954;2024-03-23T13:07:35;7.72;;;2.33;;
11998;SDS011;40817;51.520;9.954;2024-03-23T13:10:03;4.93;;;2.63;;
11998;SDS011;40817;51.520;9.954;2024-03-23T13:12:32;3.80;;;2.17;;
11998;SDS011;40817;51.520;9.954;2024-03-23T13:14:58;4.35;;;2.33;;
11998;SDS011;40817;51.520;9.954;2024-03-23T13:17:26;5.70;;;2.35;;
11998;SDS011;40817;51.520;9.954;2024-03-23T13:19:52;4.82;;;2.10;;
11998;SDS011;40817;51.520;9.954;2024-03-23T13:22:20;4.07;;;2.30;;
11998;SDS011;40817;51.520;9.954;2024-03-23T13:27:16;4.57;;;2.13;;
11998;SDS011;40817;51.520;9.954;2024-03-23T13:29:42;3.50;;;1.83;;
11998;SDS011;40817;51.520;9.954;2024-03-23T13:32:11;4.03;;;1.77;;
11998;SDS011;40817;51.520;9.954;2024-03-23T13:34:37;4.22;;;2.05;;
11998;SDS011;40817;51.520;9.954;2024-03-23T13:37:05;5.43;;;2.10;;
11998;SDS011;40817;51.520;9.954;2024-03-23T13:39:32;3.78;;;1.65;;
11998;SDS011;40817;51.520;9.954;2024-03-23T13:42:01;3.28;;;1.75;;
11998;SDS011;40817;51.520;9.954;2024-03-23T13:44:28;3.55;;;1.63;;
11998;SDS011;40817;51.520;9.954;2024-03-23T13:46:55;2.92;;;1.65;;
11998;SDS011;40817;51.520;9.954;2024-03-23T13:49:26;3.85;;;1.50;;
11998;SDS011;40817;51.520;9.954;2024-03-23T13:51:55;4.00;;;1.60;;
11998;SDS011;40817;51.520;9.954;2024-03-23T13:54:23;7.30;;;1.63;;
11998;SDS011;40817;51.520;9.954;2024-03-23T13:56:51;5.20;;;1.63;;
11998;SDS011;40817;51.520;9.954;2024-03-23T13:59:20;3.80;;;1.63;;
11998;SDS011;40817;51.520;9.954;2024-03-23T14:01:49;4.07;;;1.60;;
11998;SDS011;40817;51.520;9.954;2024-03-23T14:04:16;6.68;;;2.38;;
11998;SDS011;40817;51.520;9.954;2024-03-23T14:06:44;2.88;;;1.30;;
11998;SDS011;40817;51.520;9.954;2024-03-23T14:09:11;4.07;;;1.50;;
11998;SDS011;40817;51.520;9.954;2024-03-23T14:11:39;3.80;;;1.52;;
11998;SDS011;40817;51.520;9.954;2024-03-23T14:14:06;2.88;;;1.40;;
11998;SDS011;40817;51.520;9.954;2024-03-23T14:16:35;4.82;;;1.83;;
11998;SDS011;40817;51.520;9.954;2024-03-23T14:19:02;2.35;;;1.20;;
11998;SDS011;40817;51.520;9.954;2024-03-23T14:21:30;7.82;;;1.45;;
11998;SDS011;40817;51.520;9.954;2024-03-23T14:23:57;3.80;;;1.05;;
11998;SDS011;40817;51.520;9.954;2024-03-23T14:26:25;1.35;;;0.80;;
11998;SDS011;40817;51.520;9.954;2024-03-23T14:28:52;1.65;;;0.90;;
11998;SDS011;40817;51.520;9.954;2024-03-23T14:31:19;2.28;;;1.10;;
11998;SDS011;40817;51.520;9.954;2024-03-23T14:33:47;4.07;;;1.23;;
11998;SDS011;40817;51.520;9.954;2024-03-23T14:36:16;6.03;;;1.10;;
11998;SDS011;40817;51.520;9.954;2024-03-23T14:38:42;3.33;;;0.73;;
11998;SDS011;40817;51.520;9.954;2024-03-23T14:41:14;2.65;;;0.80;;
11998;SDS011;40817;51.520;9.954;2024-03-23T14:46:09;2.63;;;0.70;;
11998;SDS011;40817;51.520;9.954;2024-03-23T14:48:38;1.60;;;0.60;;
11998;SDS011;40817;51.520;9.954;2024-03-23T14:51:08;1.13;;;0.55;;
11998;SDS011;40817;51.520;9.954;2024-03-23T14:53:35;2.08;;;0.82;;
11998;SDS011;40817;51.520;9.954;2024-03-23T14:56:05;3.83;;;1.00;;
11998;SDS011;40817;51.520;9.954;2024-03-23T14:58:32;2.67;;;0.90;;
11998;SDS011;40817;51.520;9.954;2024-03-23T15:01:00;2.45;;;0.70;;
11998;SDS011;40817;51.520;9.954;2024-03-23T15:03:29;2.63;;;0.75;;
11998;SDS011;40817;51.520;9.954;2024-03-23T15:08:25;2.55;;;1.00;;
11998;SDS011;40817;51.520;9.954;2024-03-23T15:10:52;3.45;;;1.10;;
11998;SDS011;40817;51.520;9.954;2024-03-23T15:13:20;2.65;;;1.00;;
11998;SDS011;40817;51.520;9.954;2024-03-23T15:15:48;3.33;;;0.90;;
11998;SDS011;40817;51.520;9.954;2024-03-23T15:18:16;2.60;;;0.98;;
11998;SDS011;40817;51.520;9.954;2024-03-23T15:20:51;4.85;;;1.10;;
11998;SDS011;40817;51.520;9.954;2024-03-23T15:23:19;4.35;;;1.65;;
11998;SDS011;40817;51.520;9.954;2024-03-23T15:28:20;4.13;;;1.35;;
11998;SDS011;40817;51.520;9.954;2024-03-23T15:33:14;2.53;;;0.82;;
11998;SDS011;40817;51.520;9.954;2024-03-23T15:35:40;4.10;;;1.00;;
11998;SDS011;40817;51.520;9.954;2024-03-23T15:38:08;4.75;;;1.48;;
11998;SDS011;40817;51.520;9.954;2024-03-23T15:40:34;4.00;;;1.77;;
11998;SDS011;40817;51.520;9.954;2024-03-23T15:43:03;3.03;;;1.10;;
11998;SDS011;40817;51.520;9.954;2024-03-23T15:45:29;2.75;;;0.93;;
11998;SDS011;40817;51.520;9.954;2024-03-23T15:47:57;2.75;;;0.77;;
11998;SDS011;40817;51.520;9.954;2024-03-23T15:50:24;5.85;;;1.50;;
11998;SDS011;40817;51.520;9.954;2024-03-23T15:52:51;2.65;;;0.98;;
11998;SDS011;40817;51.520;9.954;2024-03-23T15:55:17;2.55;;;0.90;;
11998;SDS011;40817;51.520;9.954;2024-03-23T15:57:44;1.95;;;0.80;;
11998;SDS011;40817;51.520;9.954;2024-03-23T16:00:12;2.53;;;0.80;;
11998;SDS011;40817;51.520;9.954;2024-03-23T16:02:41;3.28;;;0.70;;
11998;SDS011;40817;51.520;9.954;2024-03-23T16:05:08;3.53;;;0.73;;
11998;SDS011;40817;51.520;9.954;2024-03-23T16:07:36;4.32;;;0.90;;